sensor_id;sensor_type;location;lat;lon;timestamp;temperature;humidity
19930;DHT22;10127;47.780;9.606;2023-03-31T00:00:27;9.80;99.90
19930;DHT22;10127;47.780;9.606;2023-03-31T00:02:53;9.80;99.90
19930;DHT22;10127;47.780;9.606;2023-03-31T00:05:20;9.90;99.90
19930;DHT22;10127;47.780;9.606;2023-03-31T00:07:53;10.00;99.90
19930;DHT22;10127;47.780;9.606;2023-03-31T00:10:19;9.90;99.90
19930;DHT22;10127;47.780;9.606;2023-03-31T00:12:45;9.90;99.90
19930;DHT22;10127;47.780;9.606;2023-03-31T00:15:11;10.10;99.90
19930;DHT22;10127;47.780;9.606;2023-03-31T00:17:37;10.10;99.90
19930;DHT22;10127;47.780;9.606;2023-03-31T00:20:02;10.10;99.90
19930;DHT22;10127;47.780;9.606;2023-03-31T00:22:30;10.00;99.90
19930;DHT22;10127;47.780;9.606;2023-03-31T00:24:55;10.00;99.90
19930;DHT22;10127;47.780;9.606;2023-03-31T00:27:21;10.10;99.90
19930;DHT22;10127;47.780;9.606;2023-03-31T00:29:46;10.10;99.90
19930;DHT22;10127;47.780;9.606;2023-03-31T00:32:14;10.10;99.90
19930;DHT22;10127;47.780;9.606;2023-03-31T00:34:40;10.20;99.90
19930;DHT22;10127;47.780;9.606;2023-03-31T00:37:06;10.20;99.90
19930;DHT22;10127;47.780;9.606;2023-03-31T00:39:34;10.10;99.90
19930;DHT22;10127;47.780;9.606;2023-03-31T00:42:02;10.10;99.90
19930;DHT22;10127;47.780;9.606;2023-03-31T00:44:29;10.20;99.90
19930;DHT22;10127;47.780;9.606;2023-03-31T00:47:11;10.20;99.90
19930;DHT22;10127;47.780;9.606;2023-03-31T00:49:56;10.20;99.90
19930;DHT22;10127;47.780;9.606;2023-03-31T00:52:26;10.30;99.90
19930;DHT22;10127;47.780;9.606;2023-03-31T00:55:05;10.20;99.90
19930;DHT22;10127;47.780;9.606;2023-03-31T00:57:34;10.20;99.90
19930;DHT22;10127;47.780;9.606;2023-03-31T01:00:05;10.20;99.90
19930;DHT22;10127;47.780;9.606;2023-03-31T01:02:40;10.30;99.90
19930;DHT22;10127;47.780;9.606;2023-03-31T01:05:07;10.40;99.90
19930;DHT22;10127;47.780;9.606;2023-03-31T01:07:44;10.50;99.90
19930;DHT22;10127;47.780;9.606;2023-03-31T01:10:11;10.60;99.90
19930;DHT22;10127;47.780;9.606;2023-03-31T01:12:39;10.80;99.90
19930;DHT22;10127;47.780;9.606;2023-03-31T01:15:08;10.80;99.90
19930;DHT22;10127;47.780;9.606;2023-03-31T01:17:34;10.80;99.90
19930;DHT22;10127;47.780;9.606;2023-03-31T01:26:10;10.50;99.90
19930;DHT22;10127;47.780;9.606;2023-03-31T01:42:58;10.70;99.90
19930;DHT22;10127;47.780;9.606;2023-03-31T01:48:14;10.60;99.90
19930;DHT22;10127;47.780;9.606;2023-03-31T01:56:06;10.70;99.90
19930;DHT22;10127;47.780;9.606;2023-03-31T01:58:49;10.70;99.90
19930;DHT22;10127;47.780;9.606;2023-03-31T02:01:23;10.70;99.90
19930;DHT22;10127;47.780;9.606;2023-03-31T02:04:06;10.80;99.90
19930;DHT22;10127;47.780;9.606;2023-03-31T02:06:37;10.90;99.90
19930;DHT22;10127;47.780;9.606;2023-03-31T02:09:16;10.80;99.90
19930;DHT22;10127;47.780;9.606;2023-03-31T02:11:44;10.80;99.90
19930;DHT22;10127;47.780;9.606;2023-03-31T02:14:14;10.80;99.90
19930;DHT22;10127;47.780;9.606;2023-03-31T02:16:44;10.70;99.90
19930;DHT22;10127;47.780;9.606;2023-03-31T02:19:13;10.80;99.90
19930;DHT22;10127;47.780;9.606;2023-03-31T02:21:45;10.90;99.90
19930;DHT22;10127;47.780;9.606;2023-03-31T02:24:14;10.80;99.90
19930;DHT22;10127;47.780;9.606;2023-03-31T02:29:24;10.80;99.90
19930;DHT22;10127;47.780;9.606;2023-03-31T02:32:15;10.90;99.90
19930;DHT22;10127;47.780;9.606;2023-03-31T02:34:44;10.90;99.90
19930;DHT22;10127;47.780;9.606;2023-03-31T02:37:10;10.90;99.90
19930;DHT22;10127;47.780;9.606;2023-03-31T02:39:38;10.90;99.90
19930;DHT22;10127;47.780;9.606;2023-03-31T02:42:04;10.90;99.90
19930;DHT22;10127;47.780;9.606;2023-03-31T02:44:38;10.90;99.90
19930;DHT22;10127;47.780;9.606;2023-03-31T02:47:06;10.90;99.90
19930;DHT22;10127;47.780;9.606;2023-03-31T02:49:33;10.80;99.90
19930;DHT22;10127;47.780;9.606;2023-03-31T03:13:59;10.60;99.90
19930;DHT22;10127;47.780;9.606;2023-03-31T03:16:42;10.40;99.90
19930;DHT22;10127;47.780;9.606;2023-03-31T03:19:09;10.50;99.90
19930;DHT22;10127;47.780;9.606;2023-03-31T03:21:42;10.50;99.90
19930;DHT22;10127;47.780;9.606;2023-03-31T03:24:08;10.50;99.90
19930;DHT22;10127;47.780;9.606;2023-03-31T03:26:34;10.60;99.90
19930;DHT22;10127;47.780;9.606;2023-03-31T03:28:59;10.80;99.90
19930;DHT22;10127;47.780;9.606;2023-03-31T03:31:25;10.70;99.90
19930;DHT22;10127;47.780;9.606;2023-03-31T03:33:51;10.60;99.90
19930;DHT22;10127;47.780;9.606;2023-03-31T03:36:17;10.50;99.90
19930;DHT22;10127;47.780;9.606;2023-03-31T03:38:42;10.40;99.90
19930;DHT22;10127;47.780;9.606;2023-03-31T03:41:08;10.30;99.90
19930;DHT22;10127;47.780;9.606;2023-03-31T03:43:34;10.40;99.90
19930;DHT22;10127;47.780;9.606;2023-03-31T03:46:00;10.30;99.90
19930;DHT22;10127;47.780;9.606;2023-03-31T03:48:25;10.30;99.90
19930;DHT22;10127;47.780;9.606;2023-03-31T03:50:51;10.30;99.90
19930;DHT22;10127;47.780;9.606;2023-03-31T03:53:18;10.40;99.90
19930;DHT22;10127;47.780;9.606;2023-03-31T03:55:44;10.30;99.90
19930;DHT22;10127;47.780;9.606;2023-03-31T03:58:13;10.30;99.90
19930;DHT22;10127;47.780;9.606;2023-03-31T04:00:39;10.20;99.90
19930;DHT22;10127;47.780;9.606;2023-03-31T04:03:05;10.20;99.90
19930;DHT22;10127;47.780;9.606;2023-03-31T04:05:30;10.30;99.90
19930;DHT22;10127;47.780;9.606;2023-03-31T04:07:56;10.30;99.90
19930;DHT22;10127;47.780;9.606;2023-03-31T04:10:21;10.30;99.90
19930;DHT22;10127;47.780;9.606;2023-03-31T04:12:47;10.40;99.90
19930;DHT22;10127;47.780;9.606;2023-03-31T04:15:12;10.40;99.90
19930;DHT22;10127;47.780;9.606;2023-03-31T04:17:38;10.40;99.90
19930;DHT22;10127;47.780;9.606;2023-03-31T04:20:06;10.30;99.90
19930;DHT22;10127;47.780;9.606;2023-03-31T04:22:34;10.30;99.90
19930;DHT22;10127;47.780;9.606;2023-03-31T04:25:06;10.30;99.90
19930;DHT22;10127;47.780;9.606;2023-03-31T04:27:35;10.20;99.90
19930;DHT22;10127;47.780;9.606;2023-03-31T04:30:00;10.30;99.90
19930;DHT22;10127;47.780;9.606;2023-03-31T04:32:26;10.20;99.90
19930;DHT22;10127;47.780;9.606;2023-03-31T04:34:52;10.20;99.90
19930;DHT22;10127;47.780;9.606;2023-03-31T04:37:28;10.30;99.90
19930;DHT22;10127;47.780;9.606;2023-03-31T04:40:02;10.30;99.90
19930;DHT22;10127;47.780;9.606;2023-03-31T04:42:34;10.30;99.90
19930;DHT22;10127;47.780;9.606;2023-03-31T04:45:01;10.40;99.90
19930;DHT22;10127;47.780;9.606;2023-03-31T04:47:26;10.60;99.90
19930;DHT22;10127;47.780;9.606;2023-03-31T04:49:52;10.60;99.90
19930;DHT22;10127;47.780;9.606;2023-03-31T04:52:18;10.70;99.90
19930;DHT22;10127;47.780;9.606;2023-03-31T04:54:43;10.80;99.90
19930;DHT22;10127;47.780;9.606;2023-03-31T04:57:09;10.90;99.90
19930;DHT22;10127;47.780;9.606;2023-03-31T04:59:35;10.90;99.90
19930;DHT22;10127;47.780;9.606;2023-03-31T05:02:01;10.90;99.90
19930;DHT22;10127;47.780;9.606;2023-03-31T05:04:26;11.00;99.90
19930;DHT22;10127;47.780;9.606;2023-03-31T05:06:52;11.10;99.90
19930;DHT22;10127;47.780;9.606;2023-03-31T05:09:17;11.00;99.90
19930;DHT22;10127;47.780;9.606;2023-03-31T05:11:44;11.10;99.90
19930;DHT22;10127;47.780;9.606;2023-03-31T05:14:10;11.10;99.90
19930;DHT22;10127;47.780;9.606;2023-03-31T05:16:36;11.10;99.90
19930;DHT22;10127;47.780;9.606;2023-03-31T05:19:02;11.30;99.90
19930;DHT22;10127;47.780;9.606;2023-03-31T05:21:27;11.30;99.90
19930;DHT22;10127;47.780;9.606;2023-03-31T05:23:55;11.40;99.90
19930;DHT22;10127;47.780;9.606;2023-03-31T05:26:22;11.40;99.90
19930;DHT22;10127;47.780;9.606;2023-03-31T05:28:52;11.40;99.90
19930;DHT22;10127;47.780;9.606;2023-03-31T05:31:18;11.30;99.90
19930;DHT22;10127;47.780;9.606;2023-03-31T05:33:44;11.40;99.90
19930;DHT22;10127;47.780;9.606;2023-03-31T05:36:12;11.30;99.90
19930;DHT22;10127;47.780;9.606;2023-03-31T05:38:38;11.20;99.90
19930;DHT22;10127;47.780;9.606;2023-03-31T05:41:04;11.20;99.90
19930;DHT22;10127;47.780;9.606;2023-03-31T05:43:31;11.20;99.90
19930;DHT22;10127;47.780;9.606;2023-03-31T05:45:57;11.20;99.90
19930;DHT22;10127;47.780;9.606;2023-03-31T05:48:22;11.20;99.90
19930;DHT22;10127;47.780;9.606;2023-03-31T05:50:48;11.20;99.90
19930;DHT22;10127;47.780;9.606;2023-03-31T05:53:14;11.20;99.90
19930;DHT22;10127;47.780;9.606;2023-03-31T05:55:39;11.30;99.90
19930;DHT22;10127;47.780;9.606;2023-03-31T05:58:05;11.30;99.90
19930;DHT22;10127;47.780;9.606;2023-03-31T06:00:33;11.40;99.90
19930;DHT22;10127;47.780;9.606;2023-03-31T06:03:00;11.20;99.90
19930;DHT22;10127;47.780;9.606;2023-03-31T06:05:25;11.00;99.90
19930;DHT22;10127;47.780;9.606;2023-03-31T06:07:52;11.10;99.90
19930;DHT22;10127;47.780;9.606;2023-03-31T06:10:18;11.00;99.90
19930;DHT22;10127;47.780;9.606;2023-03-31T06:12:44;11.00;99.90
19930;DHT22;10127;47.780;9.606;2023-03-31T06:15:10;11.00;99.90
19930;DHT22;10127;47.780;9.606;2023-03-31T06:17:35;11.10;99.90
19930;DHT22;10127;47.780;9.606;2023-03-31T06:20:01;11.10;99.90
19930;DHT22;10127;47.780;9.606;2023-03-31T06:22:27;11.20;99.90
19930;DHT22;10127;47.780;9.606;2023-03-31T06:24:52;11.30;99.90
19930;DHT22;10127;47.780;9.606;2023-03-31T06:27:18;11.30;99.90
19930;DHT22;10127;47.780;9.606;2023-03-31T06:29:43;11.40;99.90
19930;DHT22;10127;47.780;9.606;2023-03-31T06:32:09;11.40;99.90
19930;DHT22;10127;47.780;9.606;2023-03-31T06:34:34;11.30;99.90
19930;DHT22;10127;47.780;9.606;2023-03-31T06:37:00;11.50;99.90
19930;DHT22;10127;47.780;9.606;2023-03-31T06:39:26;11.50;99.90
19930;DHT22;10127;47.780;9.606;2023-03-31T06:41:51;11.60;99.90
19930;DHT22;10127;47.780;9.606;2023-03-31T06:44:17;11.50;99.90
19930;DHT22;10127;47.780;9.606;2023-03-31T06:46:43;11.50;99.90
19930;DHT22;10127;47.780;9.606;2023-03-31T06:49:09;11.40;99.90
19930;DHT22;10127;47.780;9.606;2023-03-31T06:51:35;11.30;99.90
19930;DHT22;10127;47.780;9.606;2023-03-31T06:54:00;11.20;99.90
19930;DHT22;10127;47.780;9.606;2023-03-31T06:56:26;11.20;99.90
19930;DHT22;10127;47.780;9.606;2023-03-31T06:58:52;11.20;99.90
19930;DHT22;10127;47.780;9.606;2023-03-31T07:01:18;11.10;99.90
19930;DHT22;10127;47.780;9.606;2023-03-31T07:03:43;11.10;99.90
19930;DHT22;10127;47.780;9.606;2023-03-31T07:06:09;11.10;99.90
19930;DHT22;10127;47.780;9.606;2023-03-31T07:08:35;11.40;99.90
19930;DHT22;10127;47.780;9.606;2023-03-31T07:11:00;11.50;99.90
19930;DHT22;10127;47.780;9.606;2023-03-31T07:13:27;11.40;99.90
19930;DHT22;10127;47.780;9.606;2023-03-31T07:15:53;11.40;99.90
19930;DHT22;10127;47.780;9.606;2023-03-31T07:18:20;11.50;99.90
19930;DHT22;10127;47.780;9.606;2023-03-31T07:20:49;11.80;99.90
19930;DHT22;10127;47.780;9.606;2023-03-31T07:23:18;11.80;99.90
19930;DHT22;10127;47.780;9.606;2023-03-31T07:25:45;11.90;99.90
19930;DHT22;10127;47.780;9.606;2023-03-31T07:28:11;11.60;99.90
19930;DHT22;10127;47.780;9.606;2023-03-31T07:30:36;11.70;99.90
19930;DHT22;10127;47.780;9.606;2023-03-31T07:33:02;11.90;99.90
19930;DHT22;10127;47.780;9.606;2023-03-31T07:35:28;12.00;99.90
19930;DHT22;10127;47.780;9.606;2023-03-31T07:37:54;12.00;99.90
19930;DHT22;10127;47.780;9.606;2023-03-31T07:40:22;12.10;99.90
19930;DHT22;10127;47.780;9.606;2023-03-31T07:42:49;12.10;99.90
19930;DHT22;10127;47.780;9.606;2023-03-31T07:45:17;12.30;99.90
19930;DHT22;10127;47.780;9.606;2023-03-31T07:47:44;12.30;99.90
19930;DHT22;10127;47.780;9.606;2023-03-31T07:50:11;12.30;99.90
19930;DHT22;10127;47.780;9.606;2023-03-31T07:52:37;12.00;99.90
19930;DHT22;10127;47.780;9.606;2023-03-31T07:55:03;12.00;99.90
19930;DHT22;10127;47.780;9.606;2023-03-31T07:57:29;11.90;99.90
19930;DHT22;10127;47.780;9.606;2023-03-31T07:59:55;11.90;99.90
19930;DHT22;10127;47.780;9.606;2023-03-31T08:02:20;12.00;99.90
19930;DHT22;10127;47.780;9.606;2023-03-31T08:04:46;12.00;99.90
19930;DHT22;10127;47.780;9.606;2023-03-31T08:07:14;12.10;99.90
19930;DHT22;10127;47.780;9.606;2023-03-31T08:09:41;12.00;99.90
19930;DHT22;10127;47.780;9.606;2023-03-31T08:12:07;12.10;99.90
19930;DHT22;10127;47.780;9.606;2023-03-31T08:14:33;12.10;99.90
19930;DHT22;10127;47.780;9.606;2023-03-31T08:16:59;12.10;99.90
19930;DHT22;10127;47.780;9.606;2023-03-31T08:19:39;12.20;99.90
19930;DHT22;10127;47.780;9.606;2023-03-31T08:22:04;12.40;99.90
19930;DHT22;10127;47.780;9.606;2023-03-31T08:24:30;12.50;99.90
19930;DHT22;10127;47.780;9.606;2023-03-31T08:26:55;12.60;99.90
19930;DHT22;10127;47.780;9.606;2023-03-31T08:29:21;12.60;99.90
19930;DHT22;10127;47.780;9.606;2023-03-31T08:31:47;12.70;99.90
19930;DHT22;10127;47.780;9.606;2023-03-31T08:34:12;12.80;99.90
19930;DHT22;10127;47.780;9.606;2023-03-31T08:36:38;13.00;99.90
19930;DHT22;10127;47.780;9.606;2023-03-31T08:39:03;13.10;99.90
19930;DHT22;10127;47.780;9.606;2023-03-31T08:41:47;13.00;99.90
19930;DHT22;10127;47.780;9.606;2023-03-31T08:46:47;13.20;99.90
19930;DHT22;10127;47.780;9.606;2023-03-31T08:49:15;13.30;99.90
19930;DHT22;10127;47.780;9.606;2023-03-31T08:51:50;13.20;99.90
19930;DHT22;10127;47.780;9.606;2023-03-31T08:54:43;13.20;99.90
19930;DHT22;10127;47.780;9.606;2023-03-31T08:57:43;13.30;99.90
19930;DHT22;10127;47.780;9.606;2023-03-31T09:00:14;13.50;99.90
19930;DHT22;10127;47.780;9.606;2023-03-31T09:02:59;13.90;99.90
19930;DHT22;10127;47.780;9.606;2023-03-31T09:05:46;14.00;99.90
19930;DHT22;10127;47.780;9.606;2023-03-31T09:11:05;14.20;99.90
19930;DHT22;10127;47.780;9.606;2023-03-31T09:19:30;14.10;99.90
19930;DHT22;10127;47.780;9.606;2023-03-31T09:22:34;14.00;99.90
19930;DHT22;10127;47.780;9.606;2023-03-31T09:25:12;14.00;99.90
19930;DHT22;10127;47.780;9.606;2023-03-31T09:27:41;14.10;99.90
19930;DHT22;10127;47.780;9.606;2023-03-31T09:30:13;14.10;99.90
19930;DHT22;10127;47.780;9.606;2023-03-31T09:32:40;14.10;99.90
19930;DHT22;10127;47.780;9.606;2023-03-31T09:35:19;14.20;99.90
19930;DHT22;10127;47.780;9.606;2023-03-31T09:37:46;14.40;99.90
19930;DHT22;10127;47.780;9.606;2023-03-31T09:40:17;14.50;99.90
19930;DHT22;10127;47.780;9.606;2023-03-31T09:42:45;14.70;99.90
19930;DHT22;10127;47.780;9.606;2023-03-31T09:45:17;15.00;99.90
19930;DHT22;10127;47.780;9.606;2023-03-31T09:47:45;14.90;99.90
19930;DHT22;10127;47.780;9.606;2023-03-31T09:50:12;15.00;99.90
19930;DHT22;10127;47.780;9.606;2023-03-31T09:52:45;14.90;99.90
19930;DHT22;10127;47.780;9.606;2023-03-31T09:55:22;14.60;99.90
19930;DHT22;10127;47.780;9.606;2023-03-31T09:57:48;14.30;99.90
19930;DHT22;10127;47.780;9.606;2023-03-31T10:00:19;13.50;99.90
19930;DHT22;10127;47.780;9.606;2023-03-31T10:02:51;13.10;99.90
19930;DHT22;10127;47.780;9.606;2023-03-31T10:05:47;12.10;99.90
19930;DHT22;10127;47.780;9.606;2023-03-31T10:08:32;11.20;99.90
19930;DHT22;10127;47.780;9.606;2023-03-31T10:13:42;10.10;99.90
19930;DHT22;10127;47.780;9.606;2023-03-31T10:16:12;10.00;99.90
19930;DHT22;10127;47.780;9.606;2023-03-31T10:18:41;10.20;99.90
19930;DHT22;10127;47.780;9.606;2023-03-31T10:21:25;10.30;99.90
19930;DHT22;10127;47.780;9.606;2023-03-31T10:23:51;10.40;99.90
19930;DHT22;10127;47.780;9.606;2023-03-31T10:26:25;10.60;99.90
19930;DHT22;10127;47.780;9.606;2023-03-31T10:28:51;11.00;99.90
19930;DHT22;10127;47.780;9.606;2023-03-31T10:31:22;10.80;99.90
19930;DHT22;10127;47.780;9.606;2023-03-31T10:33:49;10.80;99.90
19930;DHT22;10127;47.780;9.606;2023-03-31T10:36:25;10.80;99.90
19930;DHT22;10127;47.780;9.606;2023-03-31T10:38:51;10.90;99.90
19930;DHT22;10127;47.780;9.606;2023-03-31T10:41:23;11.10;99.90
19930;DHT22;10127;47.780;9.606;2023-03-31T10:43:52;11.30;99.90
19930;DHT22;10127;47.780;9.606;2023-03-31T10:46:17;11.60;99.90
19930;DHT22;10127;47.780;9.606;2023-03-31T10:48:43;11.60;99.90
19930;DHT22;10127;47.780;9.606;2023-03-31T10:51:25;11.50;99.90
19930;DHT22;10127;47.780;9.606;2023-03-31T10:53:53;11.70;99.90
19930;DHT22;10127;47.780;9.606;2023-03-31T11:07:57;13.20;99.90
19930;DHT22;10127;47.780;9.606;2023-03-31T11:10:25;13.50;99.90
19930;DHT22;10127;47.780;9.606;2023-03-31T11:21:52;13.70;99.90
19930;DHT22;10127;47.780;9.606;2023-03-31T11:27:35;13.40;99.90
19930;DHT22;10127;47.780;9.606;2023-03-31T11:33:10;12.80;99.90
19930;DHT22;10127;47.780;9.606;2023-03-31T11:40:53;12.70;99.90
19930;DHT22;10127;47.780;9.606;2023-03-31T11:45:57;12.60;99.90
19930;DHT22;10127;47.780;9.606;2023-03-31T11:48:30;12.50;99.90
19930;DHT22;10127;47.780;9.606;2023-03-31T11:50:59;12.50;99.90
19930;DHT22;10127;47.780;9.606;2023-03-31T11:53:32;12.60;99.90
19930;DHT22;10127;47.780;9.606;2023-03-31T11:56:00;12.60;99.90
19930;DHT22;10127;47.780;9.606;2023-03-31T11:58:41;12.60;99.90
19930;DHT22;10127;47.780;9.606;2023-03-31T12:01:39;12.50;99.90
19930;DHT22;10127;47.780;9.606;2023-03-31T12:06:51;12.40;99.90
19930;DHT22;10127;47.780;9.606;2023-03-31T12:12:27;12.50;99.90
19930;DHT22;10127;47.780;9.606;2023-03-31T12:17:25;13.40;99.90
19930;DHT22;10127;47.780;9.606;2023-03-31T12:19:59;13.40;99.90
19930;DHT22;10127;47.780;9.606;2023-03-31T12:22:52;13.50;99.90
19930;DHT22;10127;47.780;9.606;2023-03-31T12:25:21;13.80;99.90
19930;DHT22;10127;47.780;9.606;2023-03-31T12:27:54;14.00;99.90
19930;DHT22;10127;47.780;9.606;2023-03-31T12:30:30;14.30;99.90
19930;DHT22;10127;47.780;9.606;2023-03-31T12:33:06;14.30;99.90
19930;DHT22;10127;47.780;9.606;2023-03-31T12:44:14;15.40;99.90
19930;DHT22;10127;47.780;9.606;2023-03-31T12:57:26;15.20;99.90
19930;DHT22;10127;47.780;9.606;2023-03-31T13:00:22;14.90;99.90
19930;DHT22;10127;47.780;9.606;2023-03-31T13:02:48;14.60;99.90
19930;DHT22;10127;47.780;9.606;2023-03-31T13:08:09;14.10;99.90
19930;DHT22;10127;47.780;9.606;2023-03-31T13:10:56;13.80;99.90
19930;DHT22;10127;47.780;9.606;2023-03-31T13:13:23;13.00;99.90
19930;DHT22;10127;47.780;9.606;2023-03-31T13:15:52;12.20;99.90
19930;DHT22;10127;47.780;9.606;2023-03-31T13:18:20;12.10;99.90
19930;DHT22;10127;47.780;9.606;2023-03-31T13:20:46;12.40;99.90
19930;DHT22;10127;47.780;9.606;2023-03-31T13:23:22;12.70;99.90
19930;DHT22;10127;47.780;9.606;2023-03-31T13:25:50;12.90;99.90
19930;DHT22;10127;47.780;9.606;2023-03-31T13:30:49;13.50;99.90
19930;DHT22;10127;47.780;9.606;2023-03-31T13:56:03;14.40;99.90
19930;DHT22;10127;47.780;9.606;2023-03-31T14:06:37;14.80;99.90
19930;DHT22;10127;47.780;9.606;2023-03-31T14:09:41;14.90;99.90
19930;DHT22;10127;47.780;9.606;2023-03-31T14:12:44;14.70;99.90
19930;DHT22;10127;47.780;9.606;2023-03-31T14:14:46;14.40;99.90
19930;DHT22;10127;47.780;9.606;2023-03-31T14:17:12;14.40;99.90
19930;DHT22;10127;47.780;9.606;2023-03-31T14:25:25;14.60;99.90
19930;DHT22;10127;47.780;9.606;2023-03-31T14:33:54;14.50;99.90
19930;DHT22;10127;47.780;9.606;2023-03-31T14:36:37;14.30;99.90
19930;DHT22;10127;47.780;9.606;2023-03-31T14:39:09;14.10;99.90
19930;DHT22;10127;47.780;9.606;2023-03-31T14:41:35;13.80;99.90
19930;DHT22;10127;47.780;9.606;2023-03-31T14:44:04;13.70;99.90
19930;DHT22;10127;47.780;9.606;2023-03-31T14:46:34;13.90;99.90
19930;DHT22;10127;47.780;9.606;2023-03-31T14:49:14;14.00;99.90
19930;DHT22;10127;47.780;9.606;2023-03-31T14:51:43;13.90;99.90
19930;DHT22;10127;47.780;9.606;2023-03-31T14:54:17;14.10;99.90
19930;DHT22;10127;47.780;9.606;2023-03-31T14:56:48;14.10;99.90
19930;DHT22;10127;47.780;9.606;2023-03-31T14:59:20;14.10;99.90
19930;DHT22;10127;47.780;9.606;2023-03-31T15:01:48;14.30;99.90
19930;DHT22;10127;47.780;9.606;2023-03-31T15:04:16;14.50;99.90
19930;DHT22;10127;47.780;9.606;2023-03-31T15:06:44;14.60;99.90
19930;DHT22;10127;47.780;9.606;2023-03-31T15:09:18;14.70;99.90
19930;DHT22;10127;47.780;9.606;2023-03-31T15:11:45;14.70;99.90
19930;DHT22;10127;47.780;9.606;2023-03-31T15:14:11;14.90;99.90
19930;DHT22;10127;47.780;9.606;2023-03-31T15:19:20;15.10;99.90
19930;DHT22;10127;47.780;9.606;2023-03-31T15:21:57;15.10;99.90
19930;DHT22;10127;47.780;9.606;2023-03-31T15:24:26;15.10;99.90
19930;DHT22;10127;47.780;9.606;2023-03-31T15:29:54;14.70;99.90
19930;DHT22;10127;47.780;9.606;2023-03-31T15:32:28;14.50;99.90
19930;DHT22;10127;47.780;9.606;2023-03-31T15:34:55;14.10;99.90
19930;DHT22;10127;47.780;9.606;2023-03-31T15:37:38;13.90;99.90
19930;DHT22;10127;47.780;9.606;2023-03-31T15:40:17;13.80;99.90
19930;DHT22;10127;47.780;9.606;2023-03-31T15:42:44;13.70;99.90
19930;DHT22;10127;47.780;9.606;2023-03-31T15:47:52;13.00;99.90
19930;DHT22;10127;47.780;9.606;2023-03-31T15:50:20;10.90;99.90
19930;DHT22;10127;47.780;9.606;2023-03-31T15:52:52;9.60;99.90
19930;DHT22;10127;47.780;9.606;2023-03-31T15:55:30;8.60;99.90
19930;DHT22;10127;47.780;9.606;2023-03-31T15:57:58;8.90;99.90
19930;DHT22;10127;47.780;9.606;2023-03-31T16:03:03;9.20;99.90
19930;DHT22;10127;47.780;9.606;2023-03-31T16:05:39;9.30;99.90
19930;DHT22;10127;47.780;9.606;2023-03-31T16:08:11;9.20;99.90
19930;DHT22;10127;47.780;9.606;2023-03-31T16:10:38;9.20;99.90
19930;DHT22;10127;47.780;9.606;2023-03-31T16:13:05;9.40;99.90
19930;DHT22;10127;47.780;9.606;2023-03-31T16:15:52;9.90;99.90
19930;DHT22;10127;47.780;9.606;2023-03-31T16:20:55;10.30;99.90
19930;DHT22;10127;47.780;9.606;2023-03-31T16:23:31;10.30;99.90
19930;DHT22;10127;47.780;9.606;2023-03-31T16:25:58;10.20;99.90
19930;DHT22;10127;47.780;9.606;2023-03-31T16:28:30;10.10;99.90
19930;DHT22;10127;47.780;9.606;2023-03-31T16:30:56;10.20;99.90
19930;DHT22;10127;47.780;9.606;2023-03-31T16:33:26;10.10;99.90
19930;DHT22;10127;47.780;9.606;2023-03-31T16:35:53;10.10;99.90
19930;DHT22;10127;47.780;9.606;2023-03-31T16:38:25;10.20;99.90
19930;DHT22;10127;47.780;9.606;2023-03-31T16:40:55;10.30;99.90
19930;DHT22;10127;47.780;9.606;2023-03-31T16:43:23;10.20;99.90
19930;DHT22;10127;47.780;9.606;2023-03-31T16:45:54;10.10;99.90
19930;DHT22;10127;47.780;9.606;2023-03-31T16:48:21;9.90;99.90
19930;DHT22;10127;47.780;9.606;2023-03-31T16:50:49;9.90;99.90
19930;DHT22;10127;47.780;9.606;2023-03-31T16:53:18;9.90;99.90
19930;DHT22;10127;47.780;9.606;2023-03-31T16:55:44;9.90;99.90
19930;DHT22;10127;47.780;9.606;2023-03-31T16:58:10;9.80;99.90
19930;DHT22;10127;47.780;9.606;2023-03-31T17:00:36;9.70;99.90
19930;DHT22;10127;47.780;9.606;2023-03-31T17:03:02;9.70;99.90
19930;DHT22;10127;47.780;9.606;2023-03-31T17:05:29;9.50;99.90
19930;DHT22;10127;47.780;9.606;2023-03-31T17:07:58;9.50;99.90
19930;DHT22;10127;47.780;9.606;2023-03-31T17:10:24;9.50;99.90
19930;DHT22;10127;47.780;9.606;2023-03-31T17:12:50;9.60;99.90
19930;DHT22;10127;47.780;9.606;2023-03-31T17:15:16;9.50;99.90
19930;DHT22;10127;47.780;9.606;2023-03-31T17:17:42;9.50;99.90
19930;DHT22;10127;47.780;9.606;2023-03-31T17:20:09;9.50;99.90
19930;DHT22;10127;47.780;9.606;2023-03-31T17:22:35;9.50;99.90
19930;DHT22;10127;47.780;9.606;2023-03-31T17:25:01;9.60;99.90
19930;DHT22;10127;47.780;9.606;2023-03-31T17:27:28;9.60;99.90
19930;DHT22;10127;47.780;9.606;2023-03-31T17:29:54;9.60;99.90
19930;DHT22;10127;47.780;9.606;2023-03-31T17:32:20;9.60;99.90
19930;DHT22;10127;47.780;9.606;2023-03-31T17:34:47;9.60;99.90
19930;DHT22;10127;47.780;9.606;2023-03-31T17:37:16;9.60;99.90
19930;DHT22;10127;47.780;9.606;2023-03-31T17:39:42;9.60;99.90
19930;DHT22;10127;47.780;9.606;2023-03-31T17:42:09;9.70;99.90
19930;DHT22;10127;47.780;9.606;2023-03-31T17:44:36;9.70;99.90
19930;DHT22;10127;47.780;9.606;2023-03-31T17:47:02;9.70;99.90
19930;DHT22;10127;47.780;9.606;2023-03-31T17:49:27;9.70;99.90
19930;DHT22;10127;47.780;9.606;2023-03-31T17:51:53;9.80;99.90
19930;DHT22;10127;47.780;9.606;2023-03-31T17:54:19;9.80;99.90
19930;DHT22;10127;47.780;9.606;2023-03-31T17:56:45;9.80;99.90
19930;DHT22;10127;47.780;9.606;2023-03-31T17:59:13;9.80;99.90
19930;DHT22;10127;47.780;9.606;2023-03-31T18:01:39;9.90;99.90
19930;DHT22;10127;47.780;9.606;2023-03-31T18:04:05;9.90;99.90
19930;DHT22;10127;47.780;9.606;2023-03-31T18:06:31;9.90;99.90
19930;DHT22;10127;47.780;9.606;2023-03-31T18:08:57;10.00;99.90
19930;DHT22;10127;47.780;9.606;2023-03-31T18:11:23;9.90;99.90
19930;DHT22;10127;47.780;9.606;2023-03-31T18:13:48;10.00;99.90
19930;DHT22;10127;47.780;9.606;2023-03-31T18:16:15;10.00;99.90
19930;DHT22;10127;47.780;9.606;2023-03-31T18:18:41;10.00;99.90
19930;DHT22;10127;47.780;9.606;2023-03-31T18:21:10;9.90;99.90
19930;DHT22;10127;47.780;9.606;2023-03-31T18:23:36;9.90;99.90
19930;DHT22;10127;47.780;9.606;2023-03-31T18:26:11;9.90;99.90
19930;DHT22;10127;47.780;9.606;2023-03-31T18:28:37;9.80;99.90
19930;DHT22;10127;47.780;9.606;2023-03-31T18:31:06;9.80;99.90
19930;DHT22;10127;47.780;9.606;2023-03-31T18:33:33;9.80;99.90
19930;DHT22;10127;47.780;9.606;2023-03-31T18:35:59;9.80;99.90
19930;DHT22;10127;47.780;9.606;2023-03-31T18:38:25;9.80;99.90
19930;DHT22;10127;47.780;9.606;2023-03-31T18:40:54;9.80;99.90
19930;DHT22;10127;47.780;9.606;2023-03-31T18:43:20;9.80;99.90
19930;DHT22;10127;47.780;9.606;2023-03-31T18:45:53;9.90;99.90
19930;DHT22;10127;47.780;9.606;2023-03-31T18:48:20;9.90;99.90
19930;DHT22;10127;47.780;9.606;2023-03-31T18:50:51;9.90;99.90
19930;DHT22;10127;47.780;9.606;2023-03-31T18:53:17;10.00;99.90
19930;DHT22;10127;47.780;9.606;2023-03-31T18:55:47;10.00;99.90